sensor_id;sensor_type;location;lat;lon;timestamp;pressure;altitude;pressure_sealevel;temperature;humidity
16331;BME280;8275;48.206;16.340;2023-03-20T00:02:23;99296.03;;;14.51;34.27
16331;BME280;8275;48.206;16.340;2023-03-20T00:04:51;99289.44;;;14.52;34.38
16331;BME280;8275;48.206;16.340;2023-03-20T00:07:20;99291.06;;;14.53;34.38
16331;BME280;8275;48.206;16.340;2023-03-20T00:09:48;99290.28;;;14.52;34.35
16331;BME280;8275;48.206;16.340;2023-03-20T00:12:23;99288.88;;;14.55;34.34
16331;BME280;8275;48.206;16.340;2023-03-20T00:14:53;99296.56;;;14.58;34.31
16331;BME280;8275;48.206;16.340;2023-03-20T00:17:21;99289.69;;;14.60;34.40
16331;BME280;8275;48.206;16.340;2023-03-20T00:19:50;99289.94;;;14.64;34.42
16331;BME280;8275;48.206;16.340;2023-03-20T00:22:18;99284.38;;;14.69;34.37
16331;BME280;8275;48.206;16.340;2023-03-20T00:24:47;99286.59;;;14.72;34.41
16331;BME280;8275;48.206;16.340;2023-03-20T00:27:18;99284.91;;;14.76;34.69
16331;BME280;8275;48.206;16.340;2023-03-20T00:29:47;99275.00;;;14.80;34.49
16331;BME280;8275;48.206;16.340;2023-03-20T00:32:15;99279.66;;;14.85;34.36
16331;BME280;8275;48.206;16.340;2023-03-20T00:34:44;99281.81;;;14.88;34.31
16331;BME280;8275;48.206;16.340;2023-03-20T00:37:12;99280.16;;;14.92;34.45
16331;BME280;8275;48.206;16.340;2023-03-20T00:39:41;99278.75;;;14.94;34.43
16331;BME280;8275;48.206;16.340;2023-03-20T00:42:19;99273.78;;;14.96;34.49
16331;BME280;8275;48.206;16.340;2023-03-20T00:44:51;99281.22;;;15.01;34.37
16331;BME280;8275;48.206;16.340;2023-03-20T00:47:22;99273.19;;;15.04;34.42
16331;BME280;8275;48.206;16.340;2023-03-20T00:49:52;99278.13;;;15.07;34.36
16331;BME280;8275;48.206;16.340;2023-03-20T00:52:23;99274.53;;;15.12;34.30
16331;BME280;8275;48.206;16.340;2023-03-20T00:54:52;99266.47;;;15.15;34.24
16331;BME280;8275;48.206;16.340;2023-03-20T00:57:25;99265.38;;;15.16;34.38
16331;BME280;8275;48.206;16.340;2023-03-20T01:00:00;99262.63;;;15.16;34.20
16331;BME280;8275;48.206;16.340;2023-03-20T01:02:31;99267.84;;;15.18;34.30
16331;BME280;8275;48.206;16.340;2023-03-20T01:05:00;99270.91;;;15.16;34.09
16331;BME280;8275;48.206;16.340;2023-03-20T01:07:29;99258.50;;;15.14;34.34
16331;BME280;8275;48.206;16.340;2023-03-20T01:09:58;99264.56;;;15.11;34.22
16331;BME280;8275;48.206;16.340;2023-03-20T01:12:28;99265.44;;;15.06;34.36
16331;BME280;8275;48.206;16.340;2023-03-20T01:14:57;99278.16;;;15.02;34.31
16331;BME280;8275;48.206;16.340;2023-03-20T01:17:27;99279.00;;;14.98;34.43
16331;BME280;8275;48.206;16.340;2023-03-20T01:19:56;99269.94;;;14.92;34.45
16331;BME280;8275;48.206;16.340;2023-03-20T01:22:24;99275.50;;;14.87;34.60
16331;BME280;8275;48.206;16.340;2023-03-20T01:24:53;99276.63;;;14.81;34.81
16331;BME280;8275;48.206;16.340;2023-03-20T01:27:21;99273.88;;;14.76;34.64
16331;BME280;8275;48.206;16.340;2023-03-20T01:29:51;99274.19;;;14.69;34.62
16331;BME280;8275;48.206;16.340;2023-03-20T01:32:20;99282.22;;;14.66;34.61
16331;BME280;8275;48.206;16.340;2023-03-20T01:34:48;99285.81;;;14.61;34.70
16331;BME280;8275;48.206;16.340;2023-03-20T01:37:24;99277.88;;;14.55;34.90
16331;BME280;8275;48.206;16.340;2023-03-20T01:39:54;99278.72;;;14.50;34.72
16331;BME280;8275;48.206;16.340;2023-03-20T01:42:23;99280.66;;;14.45;34.90
16331;BME280;8275;48.206;16.340;2023-03-20T01:44:53;99284.25;;;14.40;34.94
16331;BME280;8275;48.206;16.340;2023-03-20T01:47:23;99293.06;;;14.37;34.99
16331;BME280;8275;48.206;16.340;2023-03-20T01:50:29;99290.59;;;14.31;35.13
16331;BME280;8275;48.206;16.340;2023-03-20T01:53:05;99289.19;;;14.28;35.03
16331;BME280;8275;48.206;16.340;2023-03-20T01:55:35;99290.59;;;14.26;35.05
16331;BME280;8275;48.206;16.340;2023-03-20T01:58:10;99290.03;;;14.24;35.08
16331;BME280;8275;48.206;16.340;2023-03-20T02:00:42;99285.09;;;14.21;35.14
16331;BME280;8275;48.206;16.340;2023-03-20T02:03:12;99284.28;;;14.20;35.25
16331;BME280;8275;48.206;16.340;2023-03-20T02:05:42;99279.56;;;14.21;35.30
16331;BME280;8275;48.206;16.340;2023-03-20T02:08:23;99283.44;;;14.20;35.39
16331;BME280;8275;48.206;16.340;2023-03-20T02:10:55;99283.16;;;14.21;35.32
16331;BME280;8275;48.206;16.340;2023-03-20T02:13:26;99284.81;;;14.22;35.30
16331;BME280;8275;48.206;16.340;2023-03-20T02:16:05;99284.00;;;14.22;35.44
16331;BME280;8275;48.206;16.340;2023-03-20T02:18:35;99284.53;;;14.24;35.47
16331;BME280;8275;48.206;16.340;2023-03-20T02:21:45;99282.31;;;14.21;35.56
16331;BME280;8275;48.206;16.340;2023-03-20T02:25:20;99280.41;;;14.16;35.60
16331;BME280;8275;48.206;16.340;2023-03-20T02:38:14;99299.19;;;14.04;35.86
16331;BME280;8275;48.206;16.340;2023-03-20T02:40:53;99303.88;;;14.03;35.96
16331;BME280;8275;48.206;16.340;2023-03-20T02:43:34;99307.72;;;14.02;36.10
16331;BME280;8275;48.206;16.340;2023-03-20T02:46:16;99298.66;;;14.02;36.20
16331;BME280;8275;48.206;16.340;2023-03-20T02:48:55;99302.19;;;14.02;36.03
16331;BME280;8275;48.206;16.340;2023-03-20T02:51:34;99297.53;;;14.03;36.34
16331;BME280;8275;48.206;16.340;2023-03-20T02:54:11;99296.69;;;14.02;36.29
16331;BME280;8275;48.206;16.340;2023-03-20T02:56:48;99305.25;;;14.01;36.28
16331;BME280;8275;48.206;16.340;2023-03-20T02:59:30;99306.34;;;14.00;36.42
16331;BME280;8275;48.206;16.340;2023-03-20T03:02:06;99310.22;;;13.99;36.50
16331;BME280;8275;48.206;16.340;2023-03-20T03:04:38;99301.41;;;13.97;36.45
16331;BME280;8275;48.206;16.340;2023-03-20T03:07:12;99307.47;;;13.99;36.92
16331;BME280;8275;48.206;16.340;2023-03-20T03:09:48;99306.63;;;13.98;37.15
16331;BME280;8275;48.206;16.340;2023-03-20T03:12:21;99305.53;;;13.99;36.83
16331;BME280;8275;48.206;16.340;2023-03-20T03:14:52;99308.00;;;14.01;37.10
16331;BME280;8275;48.206;16.340;2023-03-20T03:17:25;99312.41;;;14.02;37.46
16331;BME280;8275;48.206;16.340;2023-03-20T03:20:00;99305.78;;;14.03;37.91
16331;BME280;8275;48.206;16.340;2023-03-20T03:22:32;99317.91;;;14.07;38.10
16331;BME280;8275;48.206;16.340;2023-03-20T03:25:05;99311.00;;;14.09;38.30
16331;BME280;8275;48.206;16.340;2023-03-20T03:27:37;99311.56;;;14.12;38.38
16331;BME280;8275;48.206;16.340;2023-03-20T03:30:15;99310.47;;;14.13;38.30
16331;BME280;8275;48.206;16.340;2023-03-20T03:32:49;99311.28;;;14.13;38.17
16331;BME280;8275;48.206;16.340;2023-03-20T03:35:20;99309.34;;;14.14;38.12
16331;BME280;8275;48.206;16.340;2023-03-20T03:37:59;99306.88;;;14.12;38.20
16331;BME280;8275;48.206;16.340;2023-03-20T03:40:35;99314.31;;;14.12;38.40
16331;BME280;8275;48.206;16.340;2023-03-20T03:43:09;99308.00;;;14.11;38.37
16331;BME280;8275;48.206;16.340;2023-03-20T03:45:47;99308.25;;;14.09;38.67
16331;BME280;8275;48.206;16.340;2023-03-20T03:48:20;99314.59;;;14.10;38.55
16331;BME280;8275;48.206;16.340;2023-03-20T03:50:53;99314.06;;;14.08;38.73
16331;BME280;8275;48.206;16.340;2023-03-20T03:53:29;99310.19;;;14.09;39.05
16331;BME280;8275;48.206;16.340;2023-03-20T03:56:03;99310.19;;;14.09;38.97
16331;BME280;8275;48.206;16.340;2023-03-20T03:58:39;99308.53;;;14.08;39.31
16331;BME280;8275;48.206;16.340;2023-03-20T04:01:10;99301.13;;;14.08;39.33
16331;BME280;8275;48.206;16.340;2023-03-20T04:03:46;99307.72;;;14.07;39.63
16331;BME280;8275;48.206;16.340;2023-03-20T04:06:16;99312.66;;;14.11;39.72
16331;BME280;8275;48.206;16.340;2023-03-20T04:08:45;99311.00;;;14.09;39.77
16331;BME280;8275;48.206;16.340;2023-03-20T04:11:17;99311.00;;;14.09;40.21
16331;BME280;8275;48.206;16.340;2023-03-20T04:13:48;99302.75;;;14.09;40.32
16331;BME280;8275;48.206;16.340;2023-03-20T04:16:19;99311.84;;;14.10;40.25
16331;BME280;8275;48.206;16.340;2023-03-20T04:18:48;99312.38;;;14.12;40.44
16331;BME280;8275;48.206;16.340;2023-03-20T04:21:17;99305.25;;;14.11;40.30
16331;BME280;8275;48.206;16.340;2023-03-20T04:23:46;99298.91;;;14.11;40.66
16331;BME280;8275;48.206;16.340;2023-03-20T04:26:16;99304.41;;;14.11;40.52
16331;BME280;8275;48.206;16.340;2023-03-20T04:28:44;99296.16;;;14.11;40.46
16331;BME280;8275;48.206;16.340;2023-03-20T04:31:12;99301.13;;;14.08;40.27
16331;BME280;8275;48.206;16.340;2023-03-20T04:33:41;99304.94;;;14.07;40.36
16331;BME280;8275;48.206;16.340;2023-03-20T04:36:10;99300.56;;;14.06;40.50
16331;BME280;8275;48.206;16.340;2023-03-20T04:38:39;99300.81;;;14.05;40.62
16331;BME280;8275;48.206;16.340;2023-03-20T04:41:08;99306.34;;;14.05;40.59
16331;BME280;8275;48.206;16.340;2023-03-20T04:43:38;99302.19;;;14.02;40.52
16331;BME280;8275;48.206;16.340;2023-03-20T04:46:07;99306.91;;;14.02;40.74
16331;BME280;8275;48.206;16.340;2023-03-20T04:48:35;99310.75;;;14.01;40.78
16331;BME280;8275;48.206;16.340;2023-03-20T04:51:05;99307.16;;;14.00;40.92
16331;BME280;8275;48.206;16.340;2023-03-20T04:53:33;99308.84;;;14.01;40.94
16331;BME280;8275;48.206;16.340;2023-03-20T04:56:03;99314.59;;;14.00;40.96
16331;BME280;8275;48.206;16.340;2023-03-20T04:58:31;99319.56;;;13.98;41.06
16331;BME280;8275;48.206;16.340;2023-03-20T05:01:03;99327.28;;;13.96;41.06
16331;BME280;8275;48.206;16.340;2023-03-20T05:03:32;99330.88;;;13.96;40.96
16331;BME280;8275;48.206;16.340;2023-03-20T05:06:01;99335.53;;;13.96;40.92
16331;BME280;8275;48.206;16.340;2023-03-20T05:08:29;99340.22;;;13.95;41.04
16331;BME280;8275;48.206;16.340;2023-03-20T05:10:58;99342.72;;;13.97;41.08
16331;BME280;8275;48.206;16.340;2023-03-20T05:13:26;99350.97;;;13.97;41.24
16331;BME280;8275;48.206;16.340;2023-03-20T05:15:55;99358.94;;;13.98;41.08
16331;BME280;8275;48.206;16.340;2023-03-20T05:18:25;99352.34;;;13.99;41.28
16331;BME280;8275;48.206;16.340;2023-03-20T05:20:53;99362.81;;;14.02;41.20
16331;BME280;8275;48.206;16.340;2023-03-20T05:23:21;99364.47;;;14.03;41.30
16331;BME280;8275;48.206;16.340;2023-03-20T05:25:50;99369.44;;;14.06;41.29
16331;BME280;8275;48.206;16.340;2023-03-20T05:28:18;99371.34;;;14.11;41.29
16331;BME280;8275;48.206;16.340;2023-03-20T05:30:47;99372.44;;;14.15;41.71
16331;BME280;8275;48.206;16.340;2023-03-20T05:33:15;99371.06;;;14.23;41.77
16331;BME280;8275;48.206;16.340;2023-03-20T05:35:45;99381.81;;;14.29;42.00
16331;BME280;8275;48.206;16.340;2023-03-20T05:38:14;99378.50;;;14.37;42.26
16331;BME280;8275;48.206;16.340;2023-03-20T05:40:42;99388.97;;;14.45;42.04
16331;BME280;8275;48.206;16.340;2023-03-20T05:43:11;99389.22;;;14.54;42.06
16331;BME280;8275;48.206;16.340;2023-03-20T05:45:40;99390.31;;;14.63;41.99
16331;BME280;8275;48.206;16.340;2023-03-20T05:48:09;99390.53;;;14.71;41.88
16331;BME280;8275;48.206;16.340;2023-03-20T05:50:38;99401.00;;;14.80;41.61
16331;BME280;8275;48.206;16.340;2023-03-20T05:53:08;99399.31;;;14.89;41.68
16331;BME280;8275;48.206;16.340;2023-03-20T05:55:37;99395.16;;;14.96;41.52
16331;BME280;8275;48.206;16.340;2023-03-20T05:58:05;99410.03;;;15.05;41.33
16331;BME280;8275;48.206;16.340;2023-03-20T06:00:34;99405.31;;;15.11;41.35
16331;BME280;8275;48.206;16.340;2023-03-20T06:03:03;99408.59;;;15.18;41.12
16331;BME280;8275;48.206;16.340;2023-03-20T06:05:33;99404.97;;;15.22;41.13
16331;BME280;8275;48.206;16.340;2023-03-20T06:08:02;99410.75;;;15.26;40.91
16331;BME280;8275;48.206;16.340;2023-03-20T06:10:33;99416.00;;;15.27;41.04
16331;BME280;8275;48.206;16.340;2023-03-20T06:13:01;99418.19;;;15.30;40.76
16331;BME280;8275;48.206;16.340;2023-03-20T06:15:30;99418.72;;;15.32;40.76
16331;BME280;8275;48.206;16.340;2023-03-20T06:17:58;99415.97;;;15.37;40.76
16331;BME280;8275;48.206;16.340;2023-03-20T06:20:27;99415.09;;;15.42;40.71
16331;BME280;8275;48.206;16.340;2023-03-20T06:22:55;99417.56;;;15.49;40.70
16331;BME280;8275;48.206;16.340;2023-03-20T06:25:24;99421.41;;;15.53;40.58
16331;BME280;8275;48.206;16.340;2023-03-20T06:27:54;99410.03;;;15.59;40.58
16331;BME280;8275;48.206;16.340;2023-03-20T06:30:23;99412.78;;;15.64;40.68
16331;BME280;8275;48.206;16.340;2023-03-20T06:32:52;99411.34;;;15.72;40.84
16331;BME280;8275;48.206;16.340;2023-03-20T06:35:20;99412.13;;;15.77;41.10
16331;BME280;8275;48.206;16.340;2023-03-20T06:37:49;99415.94;;;15.86;41.17
16331;BME280;8275;48.206;16.340;2023-03-20T06:40:18;99421.41;;;15.96;41.15
16331;BME280;8275;48.206;16.340;2023-03-20T06:42:47;99425.19;;;16.05;41.54
16331;BME280;8275;48.206;16.340;2023-03-20T06:45:17;99417.94;;;16.14;41.74
16331;BME280;8275;48.206;16.340;2023-03-20T06:47:46;99421.72;;;16.24;41.73
16331;BME280;8275;48.206;16.340;2023-03-20T06:50:15;99422.47;;;16.34;41.45
16331;BME280;8275;48.206;16.340;2023-03-20T06:52:44;99432.31;;;16.45;41.19
16331;BME280;8275;48.206;16.340;2023-03-20T06:55:13;99423.94;;;16.55;41.38
16331;BME280;8275;48.206;16.340;2023-03-20T06:57:42;99416.38;;;16.66;41.19
16331;BME280;8275;48.206;16.340;2023-03-20T07:00:12;99430.41;;;16.74;40.96
16331;BME280;8275;48.206;16.340;2023-03-20T07:02:42;99429.69;;;16.88;41.00
16331;BME280;8275;48.206;16.340;2023-03-20T07:05:11;99429.59;;;16.98;40.96
16331;BME280;8275;48.206;16.340;2023-03-20T07:07:39;99431.94;;;17.09;40.76
16331;BME280;8275;48.206;16.340;2023-03-20T07:10:09;99430.44;;;17.22;40.89
16331;BME280;8275;48.206;16.340;2023-03-20T07:12:38;99432.22;;;17.31;40.69
16331;BME280;8275;48.206;16.340;2023-03-20T07:15:07;99434.03;;;17.41;40.63
16331;BME280;8275;48.206;16.340;2023-03-20T07:17:37;99432.25;;;17.50;40.58
16331;BME280;8275;48.206;16.340;2023-03-20T07:20:09;99438.00;;;17.59;40.38
16331;BME280;8275;48.206;16.340;2023-03-20T07:22:38;99436.44;;;17.71;40.17
16331;BME280;8275;48.206;16.340;2023-03-20T07:25:08;99433.00;;;17.79;39.97
16331;BME280;8275;48.206;16.340;2023-03-20T07:27:37;99430.38;;;17.88;39.99
16331;BME280;8275;48.206;16.340;2023-03-20T07:30:07;99434.09;;;17.97;39.73
16331;BME280;8275;48.206;16.340;2023-03-20T07:32:36;99432.00;;;18.07;39.51
16331;BME280;8275;48.206;16.340;2023-03-20T07:35:07;99438.72;;;18.20;39.35
16331;BME280;8275;48.206;16.340;2023-03-20T07:37:36;99433.75;;;18.36;39.23
16331;BME280;8275;48.206;16.340;2023-03-20T07:40:06;99435.47;;;18.50;39.19
16331;BME280;8275;48.206;16.340;2023-03-20T07:42:35;99433.56;;;18.64;38.82
16331;BME280;8275;48.206;16.340;2023-03-20T07:45:05;99437.19;;;18.78;38.71
16331;BME280;8275;48.206;16.340;2023-03-20T07:47:35;99434.63;;;18.96;38.60
16331;BME280;8275;48.206;16.340;2023-03-20T07:50:07;99433.72;;;19.14;38.48
16331;BME280;8275;48.206;16.340;2023-03-20T07:52:35;99441.94;;;19.32;38.21
16331;BME280;8275;48.206;16.340;2023-03-20T07:55:05;99428.56;;;19.48;37.68
16331;BME280;8275;48.206;16.340;2023-03-20T07:57:33;99432.38;;;19.66;37.69
16331;BME280;8275;48.206;16.340;2023-03-20T08:00:04;99431.41;;;19.84;37.41
16331;BME280;8275;48.206;16.340;2023-03-20T08:02:33;99439.38;;;19.99;36.87
16331;BME280;8275;48.206;16.340;2023-03-20T08:05:02;99431.31;;;20.11;36.46
16331;BME280;8275;48.206;16.340;2023-03-20T08:07:32;99439.22;;;20.17;36.07
16331;BME280;8275;48.206;16.340;2023-03-20T08:10:01;99436.13;;;20.19;35.98
16331;BME280;8275;48.206;16.340;2023-03-20T08:12:30;99436.84;;;20.24;36.15
16331;BME280;8275;48.206;16.340;2023-03-20T08:14:59;99439.69;;;20.33;36.00
16331;BME280;8275;48.206;16.340;2023-03-20T08:17:27;99432.03;;;20.39;35.98
16331;BME280;8275;48.206;16.340;2023-03-20T08:19:56;99433.88;;;20.43;35.99
16331;BME280;8275;48.206;16.340;2023-03-20T08:22:24;99427.03;;;20.49;35.75
16331;BME280;8275;48.206;16.340;2023-03-20T08:24:54;99423.50;;;20.57;35.76
16331;BME280;8275;48.206;16.340;2023-03-20T08:27:23;99422.22;;;20.63;35.36
16331;BME280;8275;48.206;16.340;2023-03-20T08:29:51;99419.94;;;20.65;35.23
16331;BME280;8275;48.206;16.340;2023-03-20T08:32:20;99419.78;;;20.70;35.07
16331;BME280;8275;48.206;16.340;2023-03-20T08:34:48;99414.09;;;20.75;35.09
16331;BME280;8275;48.206;16.340;2023-03-20T08:37:18;99417.25;;;20.82;34.82
16331;BME280;8275;48.206;16.340;2023-03-20T08:39:46;99418.25;;;20.86;35.03
16331;BME280;8275;48.206;16.340;2023-03-20T08:42:16;99420.06;;;20.91;34.74
16331;BME280;8275;48.206;16.340;2023-03-20T08:44:45;99419.09;;;20.95;34.81
16331;BME280;8275;48.206;16.340;2023-03-20T08:47:14;99425.00;;;20.94;34.33
16331;BME280;8275;48.206;16.340;2023-03-20T08:49:42;99417.16;;;20.96;34.79
16331;BME280;8275;48.206;16.340;2023-03-20T08:52:11;99424.53;;;21.00;34.41
16331;BME280;8275;48.206;16.340;2023-03-20T08:54:39;99427.31;;;21.00;34.30
16331;BME280;8275;48.206;16.340;2023-03-20T08:57:08;99427.97;;;20.97;34.40
16331;BME280;8275;48.206;16.340;2023-03-20T08:59:38;99427.97;;;20.97;34.63
16331;BME280;8275;48.206;16.340;2023-03-20T09:02:08;99427.00;;;21.02;34.59
16331;BME280;8275;48.206;16.340;2023-03-20T09:04:38;99426.06;;;21.07;34.68
16331;BME280;8275;48.206;16.340;2023-03-20T09:07:07;99414.78;;;21.12;34.66
16331;BME280;8275;48.206;16.340;2023-03-20T09:09:35;99424.16;;;21.16;34.15
16331;BME280;8275;48.206;16.340;2023-03-20T09:12:04;99426.28;;;21.19;34.24
16331;BME280;8275;48.206;16.340;2023-03-20T09:14:33;99427.94;;;21.20;34.11
16331;BME280;8275;48.206;16.340;2023-03-20T09:17:04;99418.63;;;21.24;34.04
16331;BME280;8275;48.206;16.340;2023-03-20T09:19:33;99428.94;;;21.32;34.11
16331;BME280;8275;48.206;16.340;2023-03-20T09:22:04;99423.09;;;21.42;34.30
16331;BME280;8275;48.206;16.340;2023-03-20T09:24:32;99434.25;;;21.51;34.11
16331;BME280;8275;48.206;16.340;2023-03-20T09:27:01;99424.59;;;21.57;33.66
16331;BME280;8275;48.206;16.340;2023-03-20T09:29:30;99427.06;;;21.58;33.20
16331;BME280;8275;48.206;16.340;2023-03-20T09:31:58;99425.59;;;21.61;32.97
16331;BME280;8275;48.206;16.340;2023-03-20T09:34:28;99432.31;;;21.60;32.92
16331;BME280;8275;48.206;16.340;2023-03-20T09:36:57;99420.16;;;21.56;32.62
16331;BME280;8275;48.206;16.340;2023-03-20T09:39:25;99418.22;;;21.56;32.97
16331;BME280;8275;48.206;16.340;2023-03-20T09:41:54;99422.94;;;21.56;33.15
16331;BME280;8275;48.206;16.340;2023-03-20T09:44:43;99423.44;;;21.58;32.98
16331;BME280;8275;48.206;16.340;2023-03-20T09:47:18;99417.72;;;21.63;32.89
16331;BME280;8275;48.206;16.340;2023-03-20T09:50:02;99422.00;;;21.69;32.98
16331;BME280;8275;48.206;16.340;2023-03-20T09:52:36;99415.94;;;21.76;32.84
16331;BME280;8275;48.206;16.340;2023-03-20T09:55:14;99419.72;;;21.80;32.29
16331;BME280;8275;48.206;16.340;2023-03-20T09:57:46;99417.31;;;21.87;32.09
16331;BME280;8275;48.206;16.340;2023-03-20T10:00:19;99404.81;;;21.93;32.51
16331;BME280;8275;48.206;16.340;2023-03-20T10:02:54;99416.31;;;22.00;32.33
16331;BME280;8275;48.206;16.340;2023-03-20T10:05:29;99412.06;;;22.02;32.25
16331;BME280;8275;48.206;16.340;2023-03-20T10:08:01;99405.81;;;22.05;32.11
16331;BME280;8275;48.206;16.340;2023-03-20T10:10:41;99400.72;;;22.07;32.31
16331;BME280;8275;48.206;16.340;2023-03-20T10:13:34;99402.50;;;22.29;31.05
16331;BME280;8275;48.206;16.340;2023-03-20T10:16:16;99408.56;;;22.31;31.23
16331;BME280;8275;48.206;16.340;2023-03-20T10:18:56;99400.19;;;22.31;30.80
16331;BME280;8275;48.206;16.340;2023-03-20T10:21:37;99395.78;;;22.30;31.00
16331;BME280;8275;48.206;16.340;2023-03-20T10:24:15;99393.97;;;22.34;31.53
16331;BME280;8275;48.206;16.340;2023-03-20T10:26:51;99383.94;;;22.42;31.26
16331;BME280;8275;48.206;16.340;2023-03-20T10:29:31;99388.88;;;22.45;31.36
16331;BME280;8275;48.206;16.340;2023-03-20T10:32:07;99391.00;;;22.48;31.16
16331;BME280;8275;48.206;16.340;2023-03-20T10:34:50;99385.09;;;22.49;30.91
16331;BME280;8275;48.206;16.340;2023-03-20T10:37:41;99384.41;;;22.52;30.74
16331;BME280;8275;48.206;16.340;2023-03-20T10:40:27;99376.69;;;22.58;30.68
16331;BME280;8275;48.206;16.340;2023-03-20T10:43:00;99377.69;;;22.62;30.25
16331;BME280;8275;48.206;16.340;2023-03-20T10:45:36;99376.16;;;22.73;30.12
16331;BME280;8275;48.206;16.340;2023-03-20T10:48:15;99378.03;;;22.98;30.43
16331;BME280;8275;48.206;16.340;2023-03-20T10:50:49;99369.34;;;23.29;29.89
16331;BME280;8275;48.206;16.340;2023-03-20T10:53:28;99360.84;;;23.54;29.76
16331;BME280;8275;48.206;16.340;2023-03-20T10:56:01;99356.56;;;23.78;29.11
16331;BME280;8275;48.206;16.340;2023-03-20T10:58:36;99358.38;;;23.94;29.28
16331;BME280;8275;48.206;16.340;2023-03-20T11:01:07;99347.13;;;24.03;28.92
16331;BME280;8275;48.206;16.340;2023-03-20T11:03:36;99356.66;;;24.02;28.74
16331;BME280;8275;48.206;16.340;2023-03-20T11:06:13;99345.19;;;24.15;28.76
16331;BME280;8275;48.206;16.340;2023-03-20T11:08:49;99345.34;;;24.52;28.75
16331;BME280;8275;48.206;16.340;2023-03-20T11:11:24;99336.63;;;24.77;28.41
16331;BME280;8275;48.206;16.340;2023-03-20T11:13:54;99337.03;;;24.88;28.20
16331;BME280;8275;48.206;16.340;2023-03-20T11:16:28;99336.34;;;24.91;28.00
16331;BME280;8275;48.206;16.340;2023-03-20T11:19:06;99338.66;;;25.01;27.95
16331;BME280;8275;48.206;16.340;2023-03-20T11:21:45;99327.56;;;25.04;27.74
16331;BME280;8275;48.206;16.340;2023-03-20T11:24:31;99333.41;;;24.99;27.33
16331;BME280;8275;48.206;16.340;2023-03-20T11:29:34;99325.09;;;25.03;27.89
16331;BME280;8275;48.206;16.340;2023-03-20T11:32:07;99320.78;;;25.05;27.55
16331;BME280;8275;48.206;16.340;2023-03-20T11:34:43;99316.81;;;25.06;27.64
16331;BME280;8275;48.206;16.340;2023-03-20T11:37:22;99317.06;;;25.01;27.39
16331;BME280;8275;48.206;16.340;2023-03-20T11:40:10;99307.81;;;24.89;27.66
16331;BME280;8275;48.206;16.340;2023-03-20T11:42:52;99310.84;;;25.08;27.46
16331;BME280;8275;48.206;16.340;2023-03-20T11:45:21;99300.66;;;25.40;27.34
16331;BME280;8275;48.206;16.340;2023-03-20T11:47:51;99299.59;;;25.56;26.96
16331;BME280;8275;48.206;16.340;2023-03-20T11:50:28;99302.00;;;25.70;27.04
16331;BME280;8275;48.206;16.340;2023-03-20T11:52:59;99296.16;;;25.75;27.21
16331;BME280;8275;48.206;16.340;2023-03-20T11:55:31;99295.59;;;25.69;27.06
16331;BME280;8275;48.206;16.340;2023-03-20T11:58:02;99299.13;;;25.66;26.88
16331;BME280;8275;48.206;16.340;2023-03-20T12:00:36;99302.63;;;25.63;26.23
16331;BME280;8275;48.206;16.340;2023-03-20T12:03:49;99299.19;;;25.82;26.87
16331;BME280;8275;48.206;16.340;2023-03-20T12:06:25;99280.41;;;26.41;26.58
16331;BME280;8275;48.206;16.340;2023-03-20T12:08:57;99286.78;;;27.17;26.02
16331;BME280;8275;48.206;16.340;2023-03-20T12:11:42;99282.69;;;27.83;25.16
16331;BME280;8275;48.206;16.340;2023-03-20T12:14:21;99275.44;;;28.43;24.59
16331;BME280;8275;48.206;16.340;2023-03-20T12:17:01;99274.16;;;28.83;24.36
16331;BME280;8275;48.206;16.340;2023-03-20T12:19:33;99278.31;;;29.15;23.89
16331;BME280;8275;48.206;16.340;2023-03-20T12:22:13;99286.75;;;29.11;22.63
16331;BME280;8275;48.206;16.340;2023-03-20T12:24:52;99286.09;;;28.73;23.18
16331;BME280;8275;48.206;16.340;2023-03-20T12:27:28;99283.81;;;28.36;23.44
16331;BME280;8275;48.206;16.340;2023-03-20T12:30:05;99285.28;;;28.11;23.80
16331;BME280;8275;48.206;16.340;2023-03-20T12:32:43;99280.47;;;27.93;24.11
16331;BME280;8275;48.206;16.340;2023-03-20T12:35:18;99277.28;;;27.75;24.12
16331;BME280;8275;48.206;16.340;2023-03-20T12:37:47;99282.66;;;27.45;23.65
16331;BME280;8275;48.206;16.340;2023-03-20T12:40:18;99276.59;;;27.28;24.26
16331;BME280;8275;48.206;16.340;2023-03-20T12:43:04;99279.94;;;27.33;24.71
16331;BME280;8275;48.206;16.340;2023-03-20T12:45:39;99275.69;;;27.39;24.44
16331;BME280;8275;48.206;16.340;2023-03-20T12:48:40;99269.50;;;27.68;25.17
16331;BME280;8275;48.206;16.340;2023-03-20T12:51:19;99276.78;;;28.27;24.48
16331;BME280;8275;48.206;16.340;2023-03-20T12:54:01;99265.50;;;28.95;22.35
16331;BME280;8275;48.206;16.340;2023-03-20T12:56:54;99264.47;;;29.29;22.66
16331;BME280;8275;48.206;16.340;2023-03-20T12:59:38;99260.91;;;29.36;22.44
16331;BME280;8275;48.206;16.340;2023-03-20T13:02:26;99262.88;;;29.05;22.34
16331;BME280;8275;48.206;16.340;2023-03-20T13:05:09;99256.56;;;28.67;22.45
16331;BME280;8275;48.206;16.340;2023-03-20T13:07:57;99254.41;;;28.37;22.88
16331;BME280;8275;48.206;16.340;2023-03-20T13:10:34;99253.28;;;28.19;23.15
16331;BME280;8275;48.206;16.340;2023-03-20T13:13:15;99258.31;;;28.10;23.70
16331;BME280;8275;48.206;16.340;2023-03-20T13:16:00;99250.69;;;28.11;23.71
16331;BME280;8275;48.206;16.340;2023-03-20T13:18:44;99249.06;;;28.10;23.46
16331;BME280;8275;48.206;16.340;2023-03-20T13:21:23;99242.38;;;28.18;23.60
16331;BME280;8275;48.206;16.340;2023-03-20T13:24:06;99244.25;;;28.33;23.62
16331;BME280;8275;48.206;16.340;2023-03-20T13:26:43;99247.53;;;28.35;22.83
16331;BME280;8275;48.206;16.340;2023-03-20T13:29:22;99245.41;;;28.09;22.83
16331;BME280;8275;48.206;16.340;2023-03-20T13:32:07;99249.06;;;27.71;22.93
16331;BME280;8275;48.206;16.340;2023-03-20T13:37:41;99252.31;;;27.04;23.13
16331;BME280;8275;48.206;16.340;2023-03-20T13:40:17;99255.44;;;26.68;23.59
16331;BME280;8275;48.206;16.340;2023-03-20T13:42:53;99254.69;;;26.39;24.09
16331;BME280;8275;48.206;16.340;2023-03-20T13:45:33;99250.47;;;26.18;24.09
16331;BME280;8275;48.206;16.340;2023-03-20T13:48:22;99262.53;;;25.91;24.67